sensor_id;sensor_type;location;lat;lon;timestamp;temperature;humidity
14154;DHT22;7157;53.144;7.570;2023-02-26T00:01:11;0.68;78.92
14154;DHT22;7157;53.144;7.570;2023-02-26T00:11:17;0.54;77.67
14154;DHT22;7157;53.144;7.570;2023-02-26T00:21:22;0.63;76.07
14154;DHT22;7157;53.144;7.570;2023-02-26T00:31:27;0.51;75.96
14154;DHT22;7157;53.144;7.570;2023-02-26T00:41:30;0.38;76.17
14154;DHT22;7157;53.144;7.570;2023-02-26T00:51:40;0.19;75.95
14154;DHT22;7157;53.144;7.570;2023-02-26T01:01:46;0.16;76.25
14154;DHT22;7157;53.144;7.570;2023-02-26T01:11:51;0.08;76.50
14154;DHT22;7157;53.144;7.570;2023-02-26T01:22:01;0.06;76.45
14154;DHT22;7157;53.144;7.570;2023-02-26T01:32:11;0.08;76.16
14154;DHT22;7157;53.144;7.570;2023-02-26T01:42:19;0.03;76.12
14154;DHT22;7157;53.144;7.570;2023-02-26T02:03:03;0.02;76.32
14154;DHT22;7157;53.144;7.570;2023-02-26T02:13:12;-0.05;76.89
14154;DHT22;7157;53.144;7.570;2023-02-26T02:23:21;-0.00;77.16
14154;DHT22;7157;53.144;7.570;2023-02-26T02:33:33;-0.21;77.63
14154;DHT22;7157;53.144;7.570;2023-02-26T02:43:40;-0.15;77.98
14154;DHT22;7157;53.144;7.570;2023-02-26T02:53:49;-0.25;78.31
14154;DHT22;7157;53.144;7.570;2023-02-26T03:03:56;-0.34;78.64
14154;DHT22;7157;53.144;7.570;2023-02-26T03:14:01;-0.42;79.10
14154;DHT22;7157;53.144;7.570;2023-02-26T03:24:07;-0.49;79.31
14154;DHT22;7157;53.144;7.570;2023-02-26T03:34:18;-0.41;79.56
14154;DHT22;7157;53.144;7.570;2023-02-26T03:44:26;-0.50;79.84
14154;DHT22;7157;53.144;7.570;2023-02-26T03:54:33;-0.45;80.20
14154;DHT22;7157;53.144;7.570;2023-02-26T04:04:47;-0.40;80.62
14154;DHT22;7157;53.144;7.570;2023-02-26T04:14:52;-0.38;80.79
14154;DHT22;7157;53.144;7.570;2023-02-26T04:24:56;-0.41;81.17
14154;DHT22;7157;53.144;7.570;2023-02-26T04:35:00;-0.40;81.42
14154;DHT22;7157;53.144;7.570;2023-02-26T04:45:03;-0.44;81.62
14154;DHT22;7157;53.144;7.570;2023-02-26T04:55:07;-0.45;81.80
14154;DHT22;7157;53.144;7.570;2023-02-26T05:05:10;-0.49;82.09
14154;DHT22;7157;53.144;7.570;2023-02-26T05:15:14;-0.52;82.47
14154;DHT22;7157;53.144;7.570;2023-02-26T05:25:17;-0.49;82.55
14154;DHT22;7157;53.144;7.570;2023-02-26T05:35:21;-0.52;82.69
14154;DHT22;7157;53.144;7.570;2023-02-26T05:45:24;-0.58;82.73
14154;DHT22;7157;53.144;7.570;2023-02-26T05:55:28;-0.68;82.74
14154;DHT22;7157;53.144;7.570;2023-02-26T06:05:30;-0.88;83.07
14154;DHT22;7157;53.144;7.570;2023-02-26T06:15:34;-0.94;83.29
14154;DHT22;7157;53.144;7.570;2023-02-26T06:25:37;-0.96;83.07
14154;DHT22;7157;53.144;7.570;2023-02-26T06:35:41;-1.05;83.36
14154;DHT22;7157;53.144;7.570;2023-02-26T06:45:44;-0.90;83.31
14154;DHT22;7157;53.144;7.570;2023-02-26T06:55:49;-0.86;82.95
14154;DHT22;7157;53.144;7.570;2023-02-26T07:05:53;-0.76;82.79
14154;DHT22;7157;53.144;7.570;2023-02-26T07:15:57;-0.53;82.73
14154;DHT22;7157;53.144;7.570;2023-02-26T07:25:59;-0.10;81.97
14154;DHT22;7157;53.144;7.570;2023-02-26T07:36:04;0.59;80.92
14154;DHT22;7157;53.144;7.570;2023-02-26T07:46:07;1.35;79.28
14154;DHT22;7157;53.144;7.570;2023-02-26T07:56:11;1.80;76.33
14154;DHT22;7157;53.144;7.570;2023-02-26T08:06:14;2.19;75.33
14154;DHT22;7157;53.144;7.570;2023-02-26T08:16:18;1.92;77.08
14154;DHT22;7157;53.144;7.570;2023-02-26T08:26:21;2.03;77.29
14154;DHT22;7157;53.144;7.570;2023-02-26T08:36:26;2.34;76.42
14154;DHT22;7157;53.144;7.570;2023-02-26T08:46:29;2.62;75.64
14154;DHT22;7157;53.144;7.570;2023-02-26T08:56:33;2.87;74.43
14154;DHT22;7157;53.144;7.570;2023-02-26T09:06:36;3.11;73.38
14154;DHT22;7157;53.144;7.570;2023-02-26T09:16:39;3.43;72.26
14154;DHT22;7157;53.144;7.570;2023-02-26T09:26:42;3.72;72.28
14154;DHT22;7157;53.144;7.570;2023-02-26T09:36:46;4.05;67.93
14154;DHT22;7157;53.144;7.570;2023-02-26T09:47:00;4.22;67.89
14154;DHT22;7157;53.144;7.570;2023-02-26T09:57:05;4.54;65.33
14154;DHT22;7157;53.144;7.570;2023-02-26T10:07:17;5.02;63.21
14154;DHT22;7157;53.144;7.570;2023-02-26T10:17:29;5.32;57.63
14154;DHT22;7157;53.144;7.570;2023-02-26T10:27:42;5.32;58.19
14154;DHT22;7157;53.144;7.570;2023-02-26T10:37:52;5.46;57.19
14154;DHT22;7157;53.144;7.570;2023-02-26T10:48:08;5.48;55.65
14154;DHT22;7157;53.144;7.570;2023-02-26T10:58:15;5.82;54.81
14154;DHT22;7157;53.144;7.570;2023-02-26T11:08:25;5.92;55.54
14154;DHT22;7157;53.144;7.570;2023-02-26T11:18:39;6.42;56.78
14154;DHT22;7157;53.144;7.570;2023-02-26T11:28:44;7.28;55.42
14154;DHT22;7157;53.144;7.570;2023-02-26T11:38:54;20.06;29.62
14154;DHT22;7157;53.144;7.570;2023-02-26T11:48:59;25.49;19.54
14154;DHT22;7157;53.144;7.570;2023-02-26T11:59:12;27.99;15.97
14154;DHT22;7157;53.144;7.570;2023-02-26T12:09:18;24.44;16.04
14154;DHT22;7157;53.144;7.570;2023-02-26T12:19:34;16.00;24.97
14154;DHT22;7157;53.144;7.570;2023-02-26T12:29:50;21.19;22.82
14154;DHT22;7157;53.144;7.570;2023-02-26T12:40:16;23.27;17.88
14154;DHT22;7157;53.144;7.570;2023-02-26T12:50:37;21.22;19.53
14154;DHT22;7157;53.144;7.570;2023-02-26T13:00:50;19.14;23.08
14154;DHT22;7157;53.144;7.570;2023-02-26T13:11:08;15.60;27.74
14154;DHT22;7157;53.144;7.570;2023-02-26T13:21:18;19.39;23.33
14154;DHT22;7157;53.144;7.570;2023-02-26T13:31:27;15.45;28.81
14154;DHT22;7157;53.144;7.570;2023-02-26T13:41:39;14.07;32.48
14154;DHT22;7157;53.144;7.570;2023-02-26T13:51:47;15.28;29.54
14154;DHT22;7157;53.144;7.570;2023-02-26T14:01:55;13.90;32.70
14154;DHT22;7157;53.144;7.570;2023-02-26T14:11:59;14.75;30.49
14154;DHT22;7157;53.144;7.570;2023-02-26T14:22:18;15.06;30.74
14154;DHT22;7157;53.144;7.570;2023-02-26T14:32:26;12.06;37.01
14154;DHT22;7157;53.144;7.570;2023-02-26T14:42:35;13.86;31.83
14154;DHT22;7157;53.144;7.570;2023-02-26T14:52:48;12.69;34.99
14154;DHT22;7157;53.144;7.570;2023-02-26T15:03:30;12.52;34.55
14154;DHT22;7157;53.144;7.570;2023-02-26T15:13:52;10.90;38.95
14154;DHT22;7157;53.144;7.570;2023-02-26T15:24:00;10.62;40.87
14154;DHT22;7157;53.144;7.570;2023-02-26T15:34:04;9.65;40.62
14154;DHT22;7157;53.144;7.570;2023-02-26T15:44:09;8.79;43.11
14154;DHT22;7157;53.144;7.570;2023-02-26T15:54:17;7.53;47.96
14154;DHT22;7157;53.144;7.570;2023-02-26T16:04:22;7.18;53.01
14154;DHT22;7157;53.144;7.570;2023-02-26T16:14:28;6.63;56.69
14154;DHT22;7157;53.144;7.570;2023-02-26T16:24:32;6.40;56.51
14154;DHT22;7157;53.144;7.570;2023-02-26T16:34:40;5.65;59.78
14154;DHT22;7157;53.144;7.570;2023-02-26T16:44:47;5.09;62.60
14154;DHT22;7157;53.144;7.570;2023-02-26T16:55:01;4.74;64.01
14154;DHT22;7157;53.144;7.570;2023-02-26T17:05:13;4.44;65.79
14154;DHT22;7157;53.144;7.570;2023-02-26T17:15:18;4.15;67.05
14154;DHT22;7157;53.144;7.570;2023-02-26T17:25:23;4.10;67.30
14154;DHT22;7157;53.144;7.570;2023-02-26T17:35:29;4.19;66.91
14154;DHT22;7157;53.144;7.570;2023-02-26T17:45:34;4.26;65.78
14154;DHT22;7157;53.144;7.570;2023-02-26T17:55:37;4.00;65.51
14154;DHT22;7157;53.144;7.570;2023-02-26T18:05:41;3.98;65.14
14154;DHT22;7157;53.144;7.570;2023-02-26T18:15:45;3.57;67.14
14154;DHT22;7157;53.144;7.570;2023-02-26T18:25:50;3.61;67.93
14154;DHT22;7157;53.144;7.570;2023-02-26T18:35:55;3.47;67.71
14154;DHT22;7157;53.144;7.570;2023-02-26T18:46:00;3.12;68.76
14154;DHT22;7157;53.144;7.570;2023-02-26T18:56:03;2.86;70.09
14154;DHT22;7157;53.144;7.570;2023-02-26T19:06:07;2.93;70.24
14154;DHT22;7157;53.144;7.570;2023-02-26T19:16:10;2.96;70.93
14154;DHT22;7157;53.144;7.570;2023-02-26T19:26:14;3.10;70.91
14154;DHT22;7157;53.144;7.570;2023-02-26T19:36:17;3.05;71.22
14154;DHT22;7157;53.144;7.570;2023-02-26T19:46:24;3.10;71.90
14154;DHT22;7157;53.144;7.570;2023-02-26T19:56:27;2.89;73.00
14154;DHT22;7157;53.144;7.570;2023-02-26T20:06:31;2.83;72.54
14154;DHT22;7157;53.144;7.570;2023-02-26T20:16:34;2.67;72.92
14154;DHT22;7157;53.144;7.570;2023-02-26T20:26:38;2.50;72.69
14154;DHT22;7157;53.144;7.570;2023-02-26T20:36:41;2.25;73.42
14154;DHT22;7157;53.144;7.570;2023-02-26T20:46:46;2.16;73.75
14154;DHT22;7157;53.144;7.570;2023-02-26T20:56:49;2.11;74.02
14154;DHT22;7157;53.144;7.570;2023-02-26T21:06:54;1.93;75.03
14154;DHT22;7157;53.144;7.570;2023-02-26T21:17:15;1.73;75.86
14154;DHT22;7157;53.144;7.570;2023-02-26T21:27:19;1.52;78.04
14154;DHT22;7157;53.144;7.570;2023-02-26T21:37:22;1.53;77.79
14154;DHT22;7157;53.144;7.570;2023-02-26T21:47:26;1.46;79.96
14154;DHT22;7157;53.144;7.570;2023-02-26T21:57:29;1.52;80.50
14154;DHT22;7157;53.144;7.570;2023-02-26T22:07:33;1.65;80.53
14154;DHT22;7157;53.144;7.570;2023-02-26T22:17:36;1.56;80.17
14154;DHT22;7157;53.144;7.570;2023-02-26T22:27:40;1.38;80.01
14154;DHT22;7157;53.144;7.570;2023-02-26T22:37:43;1.27;80.12
14154;DHT22;7157;53.144;7.570;2023-02-26T22:47:47;0.89;80.62
14154;DHT22;7157;53.144;7.570;2023-02-26T22:57:50;0.54;81.81
14154;DHT22;7157;53.144;7.570;2023-02-26T23:07:55;0.50;81.93
14154;DHT22;7157;53.144;7.570;2023-02-26T23:17:57;0.47;82.09
14154;DHT22;7157;53.144;7.570;2023-02-26T23:28:01;0.24;82.53
14154;DHT22;7157;53.144;7.570;2023-02-26T23:38:04;0.05;83.58
14154;DHT22;7157;53.144;7.570;2023-02-26T23:48:09;0.08;83.54
14154;DHT22;7157;53.144;7.570;2023-02-26T23:58:12;0.02;83.82
